Time;durP1;ratioP1;P1;durP2;ratioP2;P2;SDS_P1;SDS_P2;PMS_P1;PMS_P2;Temp;Humidity;BMP_temperature;BMP_pressure;BME280_temperature;BME280_humidity;BME280_pressure;Samples;Min_cycle;Max_cycle;Signal;HPM_P1;HPM_P2
2022/06/17 00:05:21;;;;;;;1.47;1.03;;;;;;;25.60;40.28;100408.22;20823632;27;100159;-73
2022/06/17 00:15:22;;;;;;;0.98;0.95;;;;;;;25.57;40.27;100412.84;20825080;27;100201;-74
2022/06/17 00:25:34;;;;;;;1.00;0.90;;;;;;;25.56;40.25;100434.19;20826018;27;100850;-73
2022/06/17 00:35:42;;;;;;;1.10;1.00;;;;;;;25.52;40.37;100433.66;20826794;27;97912;-74
2022/06/17 00:45:49;;;;;;;1.48;1.05;;;;;;;25.51;40.39;100442.59;20821346;27;101008;-75
2022/06/17 00:56:18;;;;;;;1.08;1.00;;;;;;;25.50;40.39;100440.06;20824420;27;98928;-74
2022/06/17 01:06:22;;;;;;;0.98;0.88;;;;;;;25.48;40.23;100432.28;20826599;27;98083;-74
2022/06/17 01:16:27;;;;;;;1.00;0.88;;;;;;;25.48;40.40;100420.84;20833058;27;99879;-74
2022/06/17 01:26:28;;;;;;;1.08;0.98;;;;;;;25.47;40.74;100427.13;20829386;27;98186;-74
2022/06/17 01:36:29;;;;;;;0.83;0.77;;;;;;;25.45;40.48;100434.38;20822534;27;99841;-74
2022/06/17 01:46:39;;;;;;;1.50;0.90;;;;;;;25.42;40.80;100440.81;20828728;27;98387;-74
2022/06/17 01:56:41;;;;;;;1.48;0.63;;;;;;;25.41;40.56;100460.34;20824632;27;99780;-73
2022/06/17 02:06:57;;;;;;;1.13;0.68;;;;;;;25.40;40.64;100464.81;20838082;27;98547;-74
2022/06/17 02:16:59;;;;;;;1.70;0.82;;;;;;;25.37;40.68;100475.69;20834400;27;98084;-73
2022/06/17 02:27:02;;;;;;;1.47;0.77;;;;;;;25.38;40.73;100473.91;20846840;27;97588;-74
2022/06/17 02:37:13;;;;;;;1.05;0.73;;;;;;;25.34;40.93;100478.63;20834138;27;99847;-73
2022/06/17 02:47:14;;;;;;;1.13;0.63;;;;;;;25.33;40.90;100476.94;20836306;27;99903;-75
2022/06/17 02:57:26;;;;;;;0.70;0.70;;;;;;;25.32;40.69;100477.91;20831851;27;97110;-73
2022/06/17 03:07:30;;;;;;;0.80;0.70;;;;;;;25.29;40.73;100480.84;20840052;27;97897;-73
2022/06/17 03:17:34;;;;;;;0.93;0.65;;;;;;;25.28;40.89;100475.69;20832661;27;98068;-73
2022/06/17 03:27:46;;;;;;;0.60;0.60;;;;;;;25.27;40.81;100485.47;20833194;27;101197;-73
2022/06/17 03:37:55;;;;;;;0.65;0.55;;;;;;;25.27;41.03;100488.13;20834061;27;101361;-73
2022/06/17 03:48:12;;;;;;;1.35;0.80;;;;;;;25.27;41.04;100501.38;20835980;27;97911;-73
2022/06/17 03:58:16;;;;;;;1.30;0.70;;;;;;;25.26;41.12;100502.34;20823534;27;98161;-74
2022/06/17 04:08:17;;;;;;;0.47;0.47;;;;;;;25.26;40.85;100507.66;20817154;27;98277;-73
2022/06/17 04:18:18;;;;;;;0.70;0.70;;;;;;;25.25;41.11;100512.13;20815458;27;97031;-74
2022/06/17 04:28:23;;;;;;;1.60;1.47;;;;;;;25.15;42.38;100513.94;20818673;27;97492;-72
2022/06/17 04:38:24;;;;;;;5.10;1.40;;;;;;;24.86;42.92;100519.28;20821060;27;96978;-72
2022/06/17 04:48:27;;;;;;;3.13;1.50;;;;;;;24.70;43.05;100514.53;20826061;27;98611;-72
2022/06/17 04:58:28;;;;;;;4.47;1.40;;;;;;;24.66;43.88;100510.47;20829057;27;97023;-73
2022/06/17 05:08:34;;;;;;;1.60;1.50;;;;;;;24.27;44.65;100513.91;20829231;27;97499;-73
2022/06/17 05:18:35;;;;;;;3.65;1.80;;;;;;;23.90;45.72;100539.09;20831010;27;97191;-73
2022/06/17 05:28:35;;;;;;;3.78;2.13;;;;;;;23.80;46.94;100548.78;20823946;27;100929;-71
2022/06/17 05:38:36;;;;;;;2.28;2.03;;;;;;;23.35;48.26;100542.00;20838036;27;97739;-71
2022/06/17 05:48:36;;;;;;;14.98;7.55;;;;;;;23.55;47.97;100550.06;20841397;27;96852;-71
2022/06/17 05:58:38;;;;;;;2.78;2.40;;;;;;;23.34;48.20;100567.59;20839499;27;99148;-70
2022/06/17 06:08:38;;;;;;;8.43;2.10;;;;;;;23.28;48.18;100581.31;20832509;27;100328;-71
2022/06/17 06:18:39;;;;;;;2.53;1.90;;;;;;;23.05;48.64;100587.66;20826649;27;99710;-71
2022/06/17 06:28:40;;;;;;;2.08;1.92;;;;;;;23.34;49.01;100593.19;20828718;27;97474;-73
2022/06/17 06:38:40;;;;;;;2.95;2.13;;;;;;;23.34;49.17;100604.59;20833759;27;97591;-74
2022/06/17 06:48:42;;;;;;;3.47;2.80;;;;;;;23.75;47.96;100607.34;20840247;27;100221;-73
2022/06/17 06:58:42;;;;;;;2.97;2.05;;;;;;;23.42;48.24;100597.84;20835122;27;100677;-74
2022/06/17 07:08:43;;;;;;;5.90;2.20;;;;;;;23.26;48.61;100606.19;20854110;27;98404;-73
2022/06/17 07:18:43;;;;;;;1.92;1.75;;;;;;;23.45;48.49;100606.34;20853443;27;97275;-73
2022/06/17 07:28:46;;;;;;;3.75;1.98;;;;;;;23.57;48.48;100616.84;20861819;27;97043;-73
2022/06/17 07:49:05;;;;;;;2.78;1.92;;;;;;;24.01;45.94;100624.63;20845349;27;97414;-77
2022/06/17 07:59:07;;;;;;;2.20;1.88;;;;;;;24.22;44.89;100632.56;20854441;27;97747;-81
2022/06/17 08:09:07;;;;;;;4.47;2.10;;;;;;;24.33;44.32;100627.16;20860186;27;97109;-79
2022/06/17 08:19:09;;;;;;;3.97;2.50;;;;;;;24.35;42.57;100637.59;20857419;27;97860;-79
2022/06/17 08:29:09;;;;;;;2.93;2.03;;;;;;;24.35;42.08;100635.81;20872325;27;97077;-79
2022/06/17 08:39:12;;;;;;;2.30;2.00;;;;;;;24.39;41.53;100633.69;20858771;27;98907;-79
2022/06/17 08:49:32;;;;;;;4.53;2.13;;;;;;;24.50;40.46;100633.63;20864689;27;96980;-80
2022/06/17 08:59:52;;;;;;;2.00;1.80;;;;;;;24.52;38.60;100636.94;20850345;27;97202;-78
2022/06/17 09:10:14;;;;;;;3.58;1.80;;;;;;;24.61;39.28;100646.75;20831878;27;100769;-77
2022/06/17 09:20:19;;;;;;;3.43;1.73;;;;;;;24.70;39.53;100649.59;20804658;27;101394;-75
2022/06/17 09:30:34;;;;;;;3.58;1.83;;;;;;;24.77;37.43;100645.44;20838977;27;97432;-76
2022/06/17 09:40:59;;;;;;;2.20;2.00;;;;;;;24.84;38.99;100648.34;20840225;27;99686;-78
2022/06/17 09:51:12;;;;;;;3.40;2.00;;;;;;;24.93;39.19;100671.38;20842982;27;97018;-77
2022/06/17 10:01:13;;;;;;;2.67;2.10;;;;;;;25.00;38.71;100672.50;20837295;27;97088;-77
2022/06/17 10:11:17;;;;;;;3.03;2.13;;;;;;;25.14;38.76;100675.72;20837207;27;97123;-78
2022/06/17 10:21:35;;;;;;;4.93;2.55;;;;;;;25.24;39.20;100680.06;20864228;27;96899;-80
2022/06/17 10:31:39;;;;;;;3.25;2.20;;;;;;;25.36;38.82;100678.09;20897919;27;96732;-82
2022/06/17 10:41:40;;;;;;;4.05;2.25;;;;;;;25.39;39.26;100693.75;20883953;27;100661;-79
2022/06/17 10:51:43;;;;;;;17.70;5.50;;;;;;;25.66;37.09;100683.41;20871699;27;97411;-80
2022/06/17 11:01:56;;;;;;;27.27;9.05;;;;;;;25.73;37.77;100680.06;20866672;27;99998;-80
2022/06/17 11:12:04;;;;;;;3.72;2.42;;;;;;;26.05;34.60;100681.53;20872500;27;96930;-81
2022/06/17 11:22:05;;;;;;;3.70;2.30;;;;;;;26.04;33.34;100668.41;20857576;27;98204;-81
2022/06/17 11:32:21;;;;;;;5.15;2.60;;;;;;;26.01;36.07;100687.25;20856125;27;97489;-80
2022/06/17 11:42:25;;;;;;;2.58;2.20;;;;;;;25.92;35.72;100686.31;20852492;27;98410;-79
2022/06/17 11:52:34;;;;;;;3.28;2.67;;;;;;;25.99;35.10;100676.81;20864421;27;97248;-77
2022/06/17 12:02:51;;;;;;;10.50;2.83;;;;;;;26.18;35.18;100664.47;20872106;27;97686;-78
2022/06/17 12:12:58;;;;;;;6.13;2.58;;;;;;;26.42;35.30;100652.53;20861406;27;100787;-77
2022/06/17 12:23:07;;;;;;;3.28;2.55;;;;;;;26.55;34.85;100641.53;20844120;27;100779;-77
2022/06/17 12:33:18;;;;;;;5.07;2.40;;;;;;;26.41;33.97;100622.47;20853268;27;100549;-77
2022/06/17 12:43:45;;;;;;;3.07;2.20;;;;;;;26.51;35.10;100625.91;20871072;27;98236;-78
2022/06/17 12:53:54;;;;;;;3.35;1.98;;;;;;;26.60;32.85;100626.84;20859292;27;97777;-81
2022/06/17 13:04:03;;;;;;;7.18;2.33;;;;;;;26.51;35.88;100617.94;20881040;27;98014;-78
2022/06/17 13:14:15;;;;;;;34.75;2.72;;;;;;;26.47;36.07;100613.91;20846930;27;98758;-81
2022/06/17 13:24:28;;;;;;;8.98;2.70;;;;;;;26.49;36.46;100621.75;20879680;27;100523;-81
2022/06/17 13:34:50;;;;;;;7.10;2.10;;;;;;;26.50;37.03;100637.50;20873085;27;96981;-82
2022/06/17 13:45:01;;;;;;;4.95;2.00;;;;;;;26.52;37.28;100610.81;20880985;27;97276;-81
2022/06/17 13:55:33;;;;;;;6.82;2.35;;;;;;;26.52;37.20;100619.63;20883396;27;101096;-82
2022/06/17 14:06:09;;;;;;;5.03;2.00;;;;;;;26.55;37.21;100610.53;20897680;27;97729;-79
2022/06/17 14:16:12;;;;;;;5.10;1.83;;;;;;;26.57;37.22;100624.47;20878669;27;96785;-79
2022/06/17 14:26:53;;;;;;;3.03;1.75;;;;;;;26.59;37.63;100600.44;20883809;27;98887;-79
2022/06/17 14:37:08;;;;;;;5.97;1.52;;;;;;;26.61;37.44;100607.25;20880474;27;97794;-80
2022/06/17 14:47:17;;;;;;;3.08;1.77;;;;;;;26.62;37.36;100608.09;20873865;27;100705;-79
2022/06/17 14:57:19;;;;;;;2.20;1.70;;;;;;;26.62;37.55;100621.38;20882769;27;97000;-79
2022/06/17 15:07:40;;;;;;;1.73;1.50;;;;;;;26.61;38.05;100617.88;20877971;27;97658;-80
2022/06/17 15:17:53;;;;;;;1.73;1.52;;;;;;;26.60;38.23;100616.22;20875851;27;97649;-80
2022/06/17 15:28:01;;;;;;;3.83;1.40;;;;;;;26.59;37.97;100609.22;20871579;27;100932;-80
2022/06/17 15:38:24;;;;;;;3.70;1.50;;;;;;;26.58;37.87;100609.38;20876765;27;100579;-80
2022/06/17 15:48:29;;;;;;;2.22;1.55;;;;;;;26.65;35.58;100600.66;20823566;27;101114;-77
2022/06/17 15:58:31;;;;;;;2.22;1.40;;;;;;;26.68;33.54;100603.03;20832153;27;101505;-76
2022/06/17 16:08:45;;;;;;;2.97;1.27;;;;;;;26.68;30.51;100611.00;20844212;27;100915;-78
2022/06/17 16:18:49;;;;;;;3.95;1.27;;;;;;;26.66;28.91;100617.44;20870518;27;98000;-78
2022/06/17 16:28:49;;;;;;;1.88;0.90;;;;;;;26.50;29.23;100616.28;20862807;27;99378;-79
2022/06/17 16:38:56;;;;;;;1.50;1.40;;;;;;;26.34;30.05;100614.25;20852391;27;98252;-77
2022/06/17 16:48:59;;;;;;;2.35;1.33;;;;;;;26.22;30.34;100620.75;20855763;27;98990;-77
2022/06/17 16:59:04;;;;;;;2.95;1.17;;;;;;;26.11;30.72;100620.91;20856173;27;98096;-78
2022/06/17 17:09:06;;;;;;;3.28;1.42;;;;;;;26.02;30.36;100633.22;20821984;27;97154;-75
2022/06/17 17:19:07;;;;;;;3.78;1.70;;;;;;;25.84;31.22;100638.44;20828011;27;100636;-74
2022/06/17 17:29:07;;;;;;;2.87;2.23;;;;;;;25.69;30.58;100653.97;20843492;27;100490;-75
2022/06/17 17:39:08;;;;;;;3.90;1.38;;;;;;;25.55;31.19;100665.88;20855858;27;97346;-76
2022/06/17 17:49:14;;;;;;;1.67;1.03;;;;;;;25.47;30.64;100658.59;20855852;27;99383;-79
2022/06/17 17:59:23;;;;;;;2.97;2.38;;;;;;;25.20;30.28;100670.69;20836691;27;97261;-76
2022/06/17 18:09:24;;;;;;;3.03;1.60;;;;;;;24.97;30.67;100675.41;20832221;27;97842;-78
2022/06/17 18:19:25;;;;;;;2.47;1.00;;;;;;;24.89;30.98;100685.84;20858343;27;98778;-79
2022/06/17 18:29:30;;;;;;;3.20;1.08;;;;;;;24.74;31.17;100696.00;20854108;27;98960;-79
2022/06/17 18:39:31;;;;;;;2.45;1.08;;;;;;;24.88;31.40;100706.22;20833638;27;98198;-76
2022/06/17 18:49:31;;;;;;;3.90;1.38;;;;;;;24.35;31.76;100717.84;20826418;27;98018;-75
2022/06/17 18:59:32;;;;;;;2.85;1.10;;;;;;;24.11;32.50;100728.72;20834423;27;97452;-76
2022/06/17 19:19:58;;;;;;;2.38;1.10;;;;;;;23.87;33.13;100774.72;20839620;27;98379;-79
2022/06/17 19:29:58;;;;;;;4.05;2.00;;;;;;;23.90;33.97;100792.13;20857599;27;100671;-80
2022/06/17 19:40:00;;;;;;;2.90;1.10;;;;;;;23.76;33.90;100814.44;20849256;27;97255;-79
2022/06/17 19:50:01;;;;;;;3.22;1.08;;;;;;;23.79;34.21;100820.31;20874237;27;97237;-81
2022/06/17 20:00:04;;;;;;;4.78;1.10;;;;;;;23.65;34.23;100842.56;20871822;27;97168;-80
2022/06/17 20:10:05;;;;;;;1.63;0.95;;;;;;;23.66;34.57;100838.16;20873450;27;100848;-81
2022/06/17 20:20:07;;;;;;;1.13;0.80;;;;;;;23.57;34.38;100858.25;20878003;27;100150;-81
2022/06/17 20:30:14;;;;;;;2.53;1.50;;;;;;;23.47;34.81;100867.84;20887499;27;97136;-81
2022/06/17 20:40:25;;;;;;;1.63;0.85;;;;;;;23.42;34.97;100878.78;20898373;27;97959;-80
2022/06/17 20:50:30;;;;;;;1.27;0.98;;;;;;;23.50;34.77;100897.53;20865891;27;100397;-81
2022/06/17 21:00:33;;;;;;;1.40;1.10;;;;;;;23.41;34.74;100911.47;20879852;27;98785;-81
2022/06/17 21:10:37;;;;;;;1.95;1.10;;;;;;;23.32;35.07;100913.03;20873771;27;97090;-81
2022/06/17 21:20:39;;;;;;;1.25;1.10;;;;;;;23.07;35.74;100915.88;20876829;27;96895;-81
2022/06/17 21:30:40;;;;;;;1.98;1.50;;;;;;;22.75;35.65;100929.75;20859098;27;97760;-81
2022/06/17 21:40:43;;;;;;;2.45;1.50;;;;;;;22.54;36.11;100930.38;20859740;27;99444;-81
2022/06/17 21:50:48;;;;;;;3.15;1.67;;;;;;;22.42;36.28;100942.69;20870576;27;98739;-81
2022/06/17 22:00:48;;;;;;;2.38;1.27;;;;;;;22.21;37.16;100940.63;20856493;27;96772;-80
2022/06/17 22:10:50;;;;;;;1.40;1.23;;;;;;;22.12;37.84;100943.97;20870494;27;97155;-81
2022/06/17 22:20:53;;;;;;;2.45;1.70;;;;;;;21.98;38.52;100934.41;20879762;27;98984;-80
2022/06/17 22:30:54;;;;;;;7.15;1.63;;;;;;;21.95;39.22;100941.69;20853366;27;97757;-81
2022/06/17 22:40:57;;;;;;;5.28;2.00;;;;;;;21.78;38.82;100950.84;20851059;27;97400;-81
2022/06/17 22:50:59;;;;;;;2.60;1.50;;;;;;;21.66;39.57;100952.53;20845864;27;97348;-82
2022/06/17 23:01:00;;;;;;;3.73;1.50;;;;;;;21.61;39.57;100966.03;20855181;27;97563;-81
2022/06/17 23:11:01;;;;;;;4.57;2.07;;;;;;;21.49;39.28;100964.22;20851005;27;107392;-81
2022/06/17 23:21:03;;;;;;;2.65;1.65;;;;;;;21.40;39.81;100970.97;20851574;27;98113;-78
2022/06/17 23:31:03;;;;;;;2.55;1.48;;;;;;;21.17;40.55;100976.03;20819930;27;97396;-78
2022/06/17 23:41:04;;;;;;;3.55;1.55;;;;;;;21.09;41.01;100981.81;20820852;27;98650;-78
2022/06/17 23:51:05;;;;;;;3.47;1.58;;;;;;;20.95;41.54;100984.53;20830084;27;97613;-78
